sensor_id;sensor_type;location;lat;lon;timestamp;P1;durP1;ratioP1;P2;durP2;ratioP2
17631;SDS011;8934;51.194;17.150;2022-12-07T00:02:01;34.13;;;13.45;;
17631;SDS011;8934;51.194;17.150;2022-12-07T00:04:49;31.80;;;14.00;;
17631;SDS011;8934;51.194;17.150;2022-12-07T00:07:36;32.72;;;14.35;;
17631;SDS011;8934;51.194;17.150;2022-12-07T00:10:23;23.73;;;10.38;;
17631;SDS011;8934;51.194;17.150;2022-12-07T00:13:12;32.92;;;14.30;;
17631;SDS011;8934;51.194;17.150;2022-12-07T00:15:59;41.45;;;17.70;;
17631;SDS011;8934;51.194;17.150;2022-12-07T00:18:48;32.03;;;15.55;;
17631;SDS011;8934;51.194;17.150;2022-12-07T00:21:35;26.73;;;13.57;;
17631;SDS011;8934;51.194;17.150;2022-12-07T00:24:23;17.73;;;9.98;;
17631;SDS011;8934;51.194;17.150;2022-12-07T00:27:10;23.55;;;10.18;;
17631;SDS011;8934;51.194;17.150;2022-12-07T00:29:58;16.08;;;8.90;;
17631;SDS011;8934;51.194;17.150;2022-12-07T00:32:46;17.10;;;9.30;;
17631;SDS011;8934;51.194;17.150;2022-12-07T00:35:33;18.50;;;11.18;;
17631;SDS011;8934;51.194;17.150;2022-12-07T00:38:20;14.90;;;8.38;;
17631;SDS011;8934;51.194;17.150;2022-12-07T00:41:09;18.35;;;9.05;;
17631;SDS011;8934;51.194;17.150;2022-12-07T00:43:58;18.15;;;8.77;;
17631;SDS011;8934;51.194;17.150;2022-12-07T00:46:47;16.52;;;8.43;;
17631;SDS011;8934;51.194;17.150;2022-12-07T00:49:34;12.77;;;7.00;;
17631;SDS011;8934;51.194;17.150;2022-12-07T00:52:21;13.30;;;7.45;;
17631;SDS011;8934;51.194;17.150;2022-12-07T00:55:08;15.23;;;7.50;;
17631;SDS011;8934;51.194;17.150;2022-12-07T00:57:55;14.32;;;7.35;;
17631;SDS011;8934;51.194;17.150;2022-12-07T01:00:42;11.40;;;6.45;;
17631;SDS011;8934;51.194;17.150;2022-12-07T01:03:31;9.88;;;6.13;;
17631;SDS011;8934;51.194;17.150;2022-12-07T01:06:19;11.27;;;6.45;;
17631;SDS011;8934;51.194;17.150;2022-12-07T01:09:07;11.20;;;5.45;;
17631;SDS011;8934;51.194;17.150;2022-12-07T01:11:55;10.55;;;6.20;;
17631;SDS011;8934;51.194;17.150;2022-12-07T01:14:42;10.63;;;5.93;;
17631;SDS011;8934;51.194;17.150;2022-12-07T01:17:29;10.73;;;5.88;;
17631;SDS011;8934;51.194;17.150;2022-12-07T01:20:18;11.30;;;5.57;;
17631;SDS011;8934;51.194;17.150;2022-12-07T01:23:05;12.65;;;6.07;;
17631;SDS011;8934;51.194;17.150;2022-12-07T01:25:56;8.18;;;5.43;;
17631;SDS011;8934;51.194;17.150;2022-12-07T01:28:43;8.60;;;5.55;;
17631;SDS011;8934;51.194;17.150;2022-12-07T01:31:31;8.35;;;5.07;;
17631;SDS011;8934;51.194;17.150;2022-12-07T01:34:17;8.70;;;5.32;;
17631;SDS011;8934;51.194;17.150;2022-12-07T01:37:06;10.88;;;6.47;;
17631;SDS011;8934;51.194;17.150;2022-12-07T01:39:53;10.35;;;5.57;;
17631;SDS011;8934;51.194;17.150;2022-12-07T01:42:40;13.50;;;5.97;;
17631;SDS011;8934;51.194;17.150;2022-12-07T01:45:38;11.13;;;6.28;;
17631;SDS011;8934;51.194;17.150;2022-12-07T01:48:27;7.20;;;4.25;;
17631;SDS011;8934;51.194;17.150;2022-12-07T01:51:18;8.55;;;5.40;;
17631;SDS011;8934;51.194;17.150;2022-12-07T01:54:06;8.63;;;4.88;;
17631;SDS011;8934;51.194;17.150;2022-12-07T01:56:55;11.20;;;5.78;;
17631;SDS011;8934;51.194;17.150;2022-12-07T01:59:43;9.07;;;5.35;;
17631;SDS011;8934;51.194;17.150;2022-12-07T02:02:33;8.48;;;4.70;;
17631;SDS011;8934;51.194;17.150;2022-12-07T02:05:22;6.68;;;3.38;;
17631;SDS011;8934;51.194;17.150;2022-12-07T02:08:10;6.97;;;4.28;;
17631;SDS011;8934;51.194;17.150;2022-12-07T02:11:00;6.18;;;3.85;;
17631;SDS011;8934;51.194;17.150;2022-12-07T02:13:49;6.35;;;3.45;;
17631;SDS011;8934;51.194;17.150;2022-12-07T02:16:40;6.00;;;3.08;;
17631;SDS011;8934;51.194;17.150;2022-12-07T02:29:29;5.10;;;2.50;;
17631;SDS011;8934;51.194;17.150;2022-12-07T02:32:23;4.53;;;2.78;;
17631;SDS011;8934;51.194;17.150;2022-12-07T02:35:15;4.03;;;2.42;;
17631;SDS011;8934;51.194;17.150;2022-12-07T02:38:08;4.57;;;2.55;;
17631;SDS011;8934;51.194;17.150;2022-12-07T02:41:02;4.50;;;2.97;;
17631;SDS011;8934;51.194;17.150;2022-12-07T02:43:53;3.50;;;2.30;;
17631;SDS011;8934;51.194;17.150;2022-12-07T02:46:46;3.08;;;1.77;;
17631;SDS011;8934;51.194;17.150;2022-12-07T02:49:37;3.33;;;2.28;;
17631;SDS011;8934;51.194;17.150;2022-12-07T02:52:25;3.30;;;1.70;;
17631;SDS011;8934;51.194;17.150;2022-12-07T02:55:12;2.53;;;1.80;;
17631;SDS011;8934;51.194;17.150;2022-12-07T02:58:14;3.10;;;1.90;;
17631;SDS011;8934;51.194;17.150;2022-12-07T03:01:10;3.40;;;2.00;;
17631;SDS011;8934;51.194;17.150;2022-12-07T03:04:08;3.13;;;2.08;;
17631;SDS011;8934;51.194;17.150;2022-12-07T03:07:11;2.67;;;1.70;;
17631;SDS011;8934;51.194;17.150;2022-12-07T03:13:02;3.72;;;1.85;;
17631;SDS011;8934;51.194;17.150;2022-12-07T03:15:54;2.30;;;1.55;;
17631;SDS011;8934;51.194;17.150;2022-12-07T03:18:46;2.05;;;1.27;;
17631;SDS011;8934;51.194;17.150;2022-12-07T03:21:38;2.22;;;1.60;;
17631;SDS011;8934;51.194;17.150;2022-12-07T03:24:30;3.08;;;1.90;;
17631;SDS011;8934;51.194;17.150;2022-12-07T03:27:22;3.47;;;1.83;;
17631;SDS011;8934;51.194;17.150;2022-12-07T03:30:15;3.50;;;1.73;;
17631;SDS011;8934;51.194;17.150;2022-12-07T03:33:06;2.90;;;1.42;;
17631;SDS011;8934;51.194;17.150;2022-12-07T03:35:58;3.13;;;1.80;;
17631;SDS011;8934;51.194;17.150;2022-12-07T03:38:52;4.38;;;2.10;;
17631;SDS011;8934;51.194;17.150;2022-12-07T03:41:47;4.82;;;2.22;;
17631;SDS011;8934;51.194;17.150;2022-12-07T03:44:34;3.40;;;1.80;;
17631;SDS011;8934;51.194;17.150;2022-12-07T03:47:24;2.65;;;2.05;;
17631;SDS011;8934;51.194;17.150;2022-12-07T03:50:16;3.45;;;1.80;;
17631;SDS011;8934;51.194;17.150;2022-12-07T03:53:09;1.70;;;1.50;;
17631;SDS011;8934;51.194;17.150;2022-12-07T03:56:02;2.72;;;1.52;;
17631;SDS011;8934;51.194;17.150;2022-12-07T03:58:49;4.05;;;2.10;;
17631;SDS011;8934;51.194;17.150;2022-12-07T04:01:38;3.97;;;1.90;;
17631;SDS011;8934;51.194;17.150;2022-12-07T04:04:27;2.45;;;1.80;;
17631;SDS011;8934;51.194;17.150;2022-12-07T04:07:14;3.03;;;1.70;;
17631;SDS011;8934;51.194;17.150;2022-12-07T04:10:02;3.58;;;1.75;;
17631;SDS011;8934;51.194;17.150;2022-12-07T04:12:51;5.22;;;2.10;;
17631;SDS011;8934;51.194;17.150;2022-12-07T04:15:38;2.38;;;1.55;;
17631;SDS011;8934;51.194;17.150;2022-12-07T04:18:25;2.97;;;1.90;;
17631;SDS011;8934;51.194;17.150;2022-12-07T04:21:12;2.15;;;1.75;;
17631;SDS011;8934;51.194;17.150;2022-12-07T04:23:59;3.28;;;1.67;;
17631;SDS011;8934;51.194;17.150;2022-12-07T04:26:46;1.95;;;1.40;;
17631;SDS011;8934;51.194;17.150;2022-12-07T04:29:35;3.17;;;1.48;;
17631;SDS011;8934;51.194;17.150;2022-12-07T04:32:23;3.05;;;2.00;;
17631;SDS011;8934;51.194;17.150;2022-12-07T04:35:10;4.50;;;1.60;;
17631;SDS011;8934;51.194;17.150;2022-12-07T04:37:57;4.13;;;1.92;;
17631;SDS011;8934;51.194;17.150;2022-12-07T04:40:44;3.92;;;2.17;;
17631;SDS011;8934;51.194;17.150;2022-12-07T04:43:31;7.03;;;3.13;;
17631;SDS011;8934;51.194;17.150;2022-12-07T04:46:20;6.55;;;2.80;;
17631;SDS011;8934;51.194;17.150;2022-12-07T04:49:07;3.58;;;2.88;;
17631;SDS011;8934;51.194;17.150;2022-12-07T04:51:55;5.00;;;2.60;;
17631;SDS011;8934;51.194;17.150;2022-12-07T04:54:42;5.13;;;3.88;;
17631;SDS011;8934;51.194;17.150;2022-12-07T04:57:29;5.70;;;3.50;;
17631;SDS011;8934;51.194;17.150;2022-12-07T05:00:16;5.60;;;3.13;;
17631;SDS011;8934;51.194;17.150;2022-12-07T05:03:05;4.40;;;3.05;;
17631;SDS011;8934;51.194;17.150;2022-12-07T05:05:52;4.45;;;2.83;;
17631;SDS011;8934;51.194;17.150;2022-12-07T05:08:40;5.50;;;2.70;;
17631;SDS011;8934;51.194;17.150;2022-12-07T05:11:28;3.92;;;2.55;;
17631;SDS011;8934;51.194;17.150;2022-12-07T05:14:24;3.17;;;2.40;;
17631;SDS011;8934;51.194;17.150;2022-12-07T05:17:12;3.63;;;2.42;;
17631;SDS011;8934;51.194;17.150;2022-12-07T05:20:01;3.70;;;2.63;;
17631;SDS011;8934;51.194;17.150;2022-12-07T05:22:49;4.88;;;3.03;;
17631;SDS011;8934;51.194;17.150;2022-12-07T05:25:36;5.70;;;2.58;;
17631;SDS011;8934;51.194;17.150;2022-12-07T05:28:23;12.73;;;6.72;;
17631;SDS011;8934;51.194;17.150;2022-12-07T05:31:10;13.57;;;7.05;;
17631;SDS011;8934;51.194;17.150;2022-12-07T05:33:57;13.02;;;7.03;;
17631;SDS011;8934;51.194;17.150;2022-12-07T05:36:46;10.32;;;4.93;;
17631;SDS011;8934;51.194;17.150;2022-12-07T05:39:34;13.63;;;6.63;;
17631;SDS011;8934;51.194;17.150;2022-12-07T05:42:23;18.15;;;8.95;;
17631;SDS011;8934;51.194;17.150;2022-12-07T05:45:10;11.25;;;5.90;;
17631;SDS011;8934;51.194;17.150;2022-12-07T05:47:57;12.13;;;6.43;;
17631;SDS011;8934;51.194;17.150;2022-12-07T05:50:47;9.05;;;5.25;;
17631;SDS011;8934;51.194;17.150;2022-12-07T05:53:35;9.93;;;5.78;;
17631;SDS011;8934;51.194;17.150;2022-12-07T05:56:22;15.95;;;7.82;;
17631;SDS011;8934;51.194;17.150;2022-12-07T05:59:10;17.20;;;9.07;;
17631;SDS011;8934;51.194;17.150;2022-12-07T06:02:09;18.85;;;8.52;;
17631;SDS011;8934;51.194;17.150;2022-12-07T06:04:57;15.90;;;8.75;;
17631;SDS011;8934;51.194;17.150;2022-12-07T06:07:44;19.63;;;9.35;;
17631;SDS011;8934;51.194;17.150;2022-12-07T06:10:33;21.35;;;10.90;;
17631;SDS011;8934;51.194;17.150;2022-12-07T06:13:20;26.45;;;11.20;;
17631;SDS011;8934;51.194;17.150;2022-12-07T06:16:06;27.83;;;11.68;;
17631;SDS011;8934;51.194;17.150;2022-12-07T06:18:53;24.70;;;11.00;;
17631;SDS011;8934;51.194;17.150;2022-12-07T06:21:41;20.55;;;10.55;;
17631;SDS011;8934;51.194;17.150;2022-12-07T06:24:28;24.10;;;10.90;;
17631;SDS011;8934;51.194;17.150;2022-12-07T06:27:17;23.05;;;12.18;;
17631;SDS011;8934;51.194;17.150;2022-12-07T06:30:05;22.83;;;11.13;;
17631;SDS011;8934;51.194;17.150;2022-12-07T06:32:53;31.23;;;13.30;;
17631;SDS011;8934;51.194;17.150;2022-12-07T06:35:42;28.73;;;12.80;;
17631;SDS011;8934;51.194;17.150;2022-12-07T06:38:29;24.38;;;11.35;;
17631;SDS011;8934;51.194;17.150;2022-12-07T06:41:16;31.63;;;13.05;;
17631;SDS011;8934;51.194;17.150;2022-12-07T06:44:05;25.70;;;12.40;;
17631;SDS011;8934;51.194;17.150;2022-12-07T06:46:52;28.60;;;12.45;;
17631;SDS011;8934;51.194;17.150;2022-12-07T06:50:00;29.25;;;12.82;;
17631;SDS011;8934;51.194;17.150;2022-12-07T06:52:48;27.63;;;12.50;;
17631;SDS011;8934;51.194;17.150;2022-12-07T06:55:37;31.92;;;13.88;;
17631;SDS011;8934;51.194;17.150;2022-12-07T06:58:25;24.60;;;11.60;;
17631;SDS011;8934;51.194;17.150;2022-12-07T07:01:13;27.50;;;11.40;;
17631;SDS011;8934;51.194;17.150;2022-12-07T07:04:04;30.20;;;12.50;;
17631;SDS011;8934;51.194;17.150;2022-12-07T07:06:52;33.42;;;16.20;;
17631;SDS011;8934;51.194;17.150;2022-12-07T07:09:44;23.77;;;11.93;;
17631;SDS011;8934;51.194;17.150;2022-12-07T07:12:31;26.92;;;12.23;;
17631;SDS011;8934;51.194;17.150;2022-12-07T07:15:19;25.30;;;11.45;;
17631;SDS011;8934;51.194;17.150;2022-12-07T07:18:07;25.63;;;12.30;;
17631;SDS011;8934;51.194;17.150;2022-12-07T07:20:55;21.10;;;11.40;;
17631;SDS011;8934;51.194;17.150;2022-12-07T07:23:42;22.45;;;11.55;;
17631;SDS011;8934;51.194;17.150;2022-12-07T07:26:29;22.40;;;11.73;;
17631;SDS011;8934;51.194;17.150;2022-12-07T07:29:16;22.35;;;10.13;;
17631;SDS011;8934;51.194;17.150;2022-12-07T07:32:04;21.33;;;11.77;;
17631;SDS011;8934;51.194;17.150;2022-12-07T07:34:54;21.42;;;10.95;;
17631;SDS011;8934;51.194;17.150;2022-12-07T07:37:41;23.23;;;12.07;;
17631;SDS011;8934;51.194;17.150;2022-12-07T07:40:28;22.15;;;11.55;;
17631;SDS011;8934;51.194;17.150;2022-12-07T07:43:15;23.48;;;11.20;;
17631;SDS011;8934;51.194;17.150;2022-12-07T07:46:02;21.67;;;10.70;;
17631;SDS011;8934;51.194;17.150;2022-12-07T07:48:49;20.10;;;10.30;;
17631;SDS011;8934;51.194;17.150;2022-12-07T07:51:38;16.10;;;8.25;;
17631;SDS011;8934;51.194;17.150;2022-12-07T07:54:25;22.80;;;9.63;;
17631;SDS011;8934;51.194;17.150;2022-12-07T07:57:12;18.75;;;8.98;;
17631;SDS011;8934;51.194;17.150;2022-12-07T07:59:59;18.52;;;9.10;;
17631;SDS011;8934;51.194;17.150;2022-12-07T08:02:56;19.65;;;9.60;;
17631;SDS011;8934;51.194;17.150;2022-12-07T08:05:44;19.38;;;9.95;;
17631;SDS011;8934;51.194;17.150;2022-12-07T08:08:32;16.80;;;8.63;;
17631;SDS011;8934;51.194;17.150;2022-12-07T08:11:19;19.70;;;9.85;;
17631;SDS011;8934;51.194;17.150;2022-12-07T08:14:06;20.08;;;9.85;;
17631;SDS011;8934;51.194;17.150;2022-12-07T08:16:53;18.70;;;9.98;;
17631;SDS011;8934;51.194;17.150;2022-12-07T08:19:40;21.05;;;9.23;;
17631;SDS011;8934;51.194;17.150;2022-12-07T08:22:27;18.60;;;9.38;;
17631;SDS011;8934;51.194;17.150;2022-12-07T08:25:16;14.02;;;8.60;;
17631;SDS011;8934;51.194;17.150;2022-12-07T08:28:03;15.00;;;7.65;;
17631;SDS011;8934;51.194;17.150;2022-12-07T08:30:50;17.92;;;9.52;;
17631;SDS011;8934;51.194;17.150;2022-12-07T08:33:38;17.50;;;8.60;;
17631;SDS011;8934;51.194;17.150;2022-12-07T08:36:25;18.63;;;9.25;;
17631;SDS011;8934;51.194;17.150;2022-12-07T08:39:12;16.88;;;9.35;;
17631;SDS011;8934;51.194;17.150;2022-12-07T08:42:17;16.92;;;8.45;;
17631;SDS011;8934;51.194;17.150;2022-12-07T08:45:05;18.77;;;9.00;;
17631;SDS011;8934;51.194;17.150;2022-12-07T08:47:54;18.17;;;8.70;;
17631;SDS011;8934;51.194;17.150;2022-12-07T08:50:47;17.38;;;9.65;;
17631;SDS011;8934;51.194;17.150;2022-12-07T08:53:34;26.25;;;11.70;;
17631;SDS011;8934;51.194;17.150;2022-12-07T08:56:23;18.70;;;9.40;;
17631;SDS011;8934;51.194;17.150;2022-12-07T08:59:13;18.40;;;9.15;;
17631;SDS011;8934;51.194;17.150;2022-12-07T09:02:03;19.33;;;9.05;;
17631;SDS011;8934;51.194;17.150;2022-12-07T09:04:50;20.15;;;8.80;;
17631;SDS011;8934;51.194;17.150;2022-12-07T09:07:37;23.23;;;10.73;;
17631;SDS011;8934;51.194;17.150;2022-12-07T09:10:25;19.08;;;9.52;;
17631;SDS011;8934;51.194;17.150;2022-12-07T09:13:12;18.15;;;9.98;;
17631;SDS011;8934;51.194;17.150;2022-12-07T09:16:01;23.90;;;10.60;;
17631;SDS011;8934;51.194;17.150;2022-12-07T09:18:48;34.25;;;17.98;;
17631;SDS011;8934;51.194;17.150;2022-12-07T09:21:35;70.35;;;38.20;;
17631;SDS011;8934;51.194;17.150;2022-12-07T09:24:22;23.55;;;13.63;;
17631;SDS011;8934;51.194;17.150;2022-12-07T09:27:09;15.35;;;9.20;;
17631;SDS011;8934;51.194;17.150;2022-12-07T09:29:56;17.60;;;10.82;;
17631;SDS011;8934;51.194;17.150;2022-12-07T09:32:45;13.40;;;8.52;;
17631;SDS011;8934;51.194;17.150;2022-12-07T09:35:32;16.75;;;10.70;;
17631;SDS011;8934;51.194;17.150;2022-12-07T09:38:19;18.25;;;11.75;;
17631;SDS011;8934;51.194;17.150;2022-12-07T09:41:06;17.38;;;11.68;;
17631;SDS011;8934;51.194;17.150;2022-12-07T09:43:55;13.20;;;8.93;;
17631;SDS011;8934;51.194;17.150;2022-12-07T09:46:48;15.10;;;9.55;;
17631;SDS011;8934;51.194;17.150;2022-12-07T09:49:39;10.90;;;7.35;;
17631;SDS011;8934;51.194;17.150;2022-12-07T09:52:27;11.23;;;7.03;;
17631;SDS011;8934;51.194;17.150;2022-12-07T09:55:23;12.48;;;7.63;;
17631;SDS011;8934;51.194;17.150;2022-12-07T09:58:16;11.73;;;6.35;;
17631;SDS011;8934;51.194;17.150;2022-12-07T10:01:09;10.73;;;6.13;;
17631;SDS011;8934;51.194;17.150;2022-12-07T10:04:08;12.45;;;6.57;;
17631;SDS011;8934;51.194;17.150;2022-12-07T10:06:59;12.18;;;7.72;;
17631;SDS011;8934;51.194;17.150;2022-12-07T10:09:46;11.23;;;6.35;;
17631;SDS011;8934;51.194;17.150;2022-12-07T10:12:42;14.55;;;9.40;;
17631;SDS011;8934;51.194;17.150;2022-12-07T10:15:44;13.25;;;7.35;;
17631;SDS011;8934;51.194;17.150;2022-12-07T10:18:34;9.30;;;5.97;;
17631;SDS011;8934;51.194;17.150;2022-12-07T10:21:22;8.10;;;4.72;;
17631;SDS011;8934;51.194;17.150;2022-12-07T10:24:14;11.50;;;6.38;;
17631;SDS011;8934;51.194;17.150;2022-12-07T10:27:01;11.98;;;7.50;;
17631;SDS011;8934;51.194;17.150;2022-12-07T10:29:49;8.73;;;5.80;;
17631;SDS011;8934;51.194;17.150;2022-12-07T10:32:37;12.32;;;6.75;;
17631;SDS011;8934;51.194;17.150;2022-12-07T10:35:25;7.30;;;4.70;;
17631;SDS011;8934;51.194;17.150;2022-12-07T10:38:16;10.32;;;7.43;;
17631;SDS011;8934;51.194;17.150;2022-12-07T10:41:05;9.07;;;5.18;;
17631;SDS011;8934;51.194;17.150;2022-12-07T10:43:55;13.95;;;8.90;;
17631;SDS011;8934;51.194;17.150;2022-12-07T10:46:50;10.93;;;5.03;;
17631;SDS011;8934;51.194;17.150;2022-12-07T10:49:51;8.68;;;4.85;;
17631;SDS011;8934;51.194;17.150;2022-12-07T10:59:33;7.93;;;3.80;;
17631;SDS011;8934;51.194;17.150;2022-12-07T11:06:03;7.47;;;4.20;;
17631;SDS011;8934;51.194;17.150;2022-12-07T11:09:04;7.65;;;5.85;;
17631;SDS011;8934;51.194;17.150;2022-12-07T11:12:32;8.33;;;5.93;;
17631;SDS011;8934;51.194;17.150;2022-12-07T11:15:31;11.40;;;5.57;;
17631;SDS011;8934;51.194;17.150;2022-12-07T11:18:29;7.45;;;4.43;;
17631;SDS011;8934;51.194;17.150;2022-12-07T11:21:26;6.45;;;4.75;;
17631;SDS011;8934;51.194;17.150;2022-12-07T11:24:17;9.52;;;4.75;;
17631;SDS011;8934;51.194;17.150;2022-12-07T11:27:12;5.93;;;4.07;;
17631;SDS011;8934;51.194;17.150;2022-12-07T11:30:14;5.70;;;3.53;;
17631;SDS011;8934;51.194;17.150;2022-12-07T11:33:10;6.15;;;4.10;;
17631;SDS011;8934;51.194;17.150;2022-12-07T11:36:05;6.90;;;4.03;;
17631;SDS011;8934;51.194;17.150;2022-12-07T11:39:02;7.18;;;4.18;;
17631;SDS011;8934;51.194;17.150;2022-12-07T11:41:55;10.25;;;5.43;;
17631;SDS011;8934;51.194;17.150;2022-12-07T11:44:49;6.32;;;4.35;;
17631;SDS011;8934;51.194;17.150;2022-12-07T11:47:43;12.43;;;7.90;;
17631;SDS011;8934;51.194;17.150;2022-12-07T11:50:34;14.43;;;7.40;;
17631;SDS011;8934;51.194;17.150;2022-12-07T11:53:26;11.77;;;6.13;;
17631;SDS011;8934;51.194;17.150;2022-12-07T11:56:19;9.88;;;4.60;;
17631;SDS011;8934;51.194;17.150;2022-12-07T11:59:10;6.13;;;4.32;;
17631;SDS011;8934;51.194;17.150;2022-12-07T12:02:02;6.30;;;4.55;;
17631;SDS011;8934;51.194;17.150;2022-12-07T12:05:02;7.13;;;4.95;;
17631;SDS011;8934;51.194;17.150;2022-12-07T12:08:00;7.75;;;4.95;;
17631;SDS011;8934;51.194;17.150;2022-12-07T12:11:18;6.38;;;3.70;;
17631;SDS011;8934;51.194;17.150;2022-12-07T12:14:22;7.00;;;3.67;;
17631;SDS011;8934;51.194;17.150;2022-12-07T12:17:33;6.63;;;4.45;;
17631;SDS011;8934;51.194;17.150;2022-12-07T12:20:44;6.18;;;3.97;;
17631;SDS011;8934;51.194;17.150;2022-12-07T12:23:37;8.75;;;4.40;;
17631;SDS011;8934;51.194;17.150;2022-12-07T12:26:28;7.28;;;4.90;;
17631;SDS011;8934;51.194;17.150;2022-12-07T12:29:20;9.20;;;4.75;;
17631;SDS011;8934;51.194;17.150;2022-12-07T12:32:14;6.50;;;4.28;;
17631;SDS011;8934;51.194;17.150;2022-12-07T12:38:26;7.00;;;5.05;;
17631;SDS011;8934;51.194;17.150;2022-12-07T12:48:10;46.58;;;21.42;;
17631;SDS011;8934;51.194;17.150;2022-12-07T12:51:35;31.98;;;14.10;;
17631;SDS011;8934;51.194;17.150;2022-12-07T12:54:26;20.75;;;8.73;;
17631;SDS011;8934;51.194;17.150;2022-12-07T12:57:15;10.98;;;7.65;;
17631;SDS011;8934;51.194;17.150;2022-12-07T13:00:15;11.07;;;6.90;;
17631;SDS011;8934;51.194;17.150;2022-12-07T13:03:04;7.78;;;5.28;;
17631;SDS011;8934;51.194;17.150;2022-12-07T13:06:17;9.38;;;6.53;;
17631;SDS011;8934;51.194;17.150;2022-12-07T13:09:15;9.20;;;5.55;;
17631;SDS011;8934;51.194;17.150;2022-12-07T13:12:13;9.75;;;6.07;;
17631;SDS011;8934;51.194;17.150;2022-12-07T13:15:02;11.07;;;6.60;;
17631;SDS011;8934;51.194;17.150;2022-12-07T13:18:01;9.10;;;5.18;;
17631;SDS011;8934;51.194;17.150;2022-12-07T13:20:51;12.75;;;7.53;;
17631;SDS011;8934;51.194;17.150;2022-12-07T13:23:39;11.15;;;6.25;;
17631;SDS011;8934;51.194;17.150;2022-12-07T13:26:41;10.52;;;6.47;;
17631;SDS011;8934;51.194;17.150;2022-12-07T13:29:35;10.02;;;6.65;;
17631;SDS011;8934;51.194;17.150;2022-12-07T13:32:25;9.90;;;5.90;;
17631;SDS011;8934;51.194;17.150;2022-12-07T13:35:29;12.82;;;6.68;;
17631;SDS011;8934;51.194;17.150;2022-12-07T13:38:21;10.40;;;5.53;;
17631;SDS011;8934;51.194;17.150;2022-12-07T13:41:13;8.93;;;5.60;;
17631;SDS011;8934;51.194;17.150;2022-12-07T13:44:03;9.27;;;5.30;;
17631;SDS011;8934;51.194;17.150;2022-12-07T13:46:57;8.15;;;5.07;;
17631;SDS011;8934;51.194;17.150;2022-12-07T13:49:51;8.10;;;4.47;;
17631;SDS011;8934;51.194;17.150;2022-12-07T13:52:43;7.85;;;4.30;;
17631;SDS011;8934;51.194;17.150;2022-12-07T13:55:31;9.38;;;5.85;;
17631;SDS011;8934;51.194;17.150;2022-12-07T13:58:19;8.95;;;4.60;;
17631;SDS011;8934;51.194;17.150;2022-12-07T14:01:06;9.10;;;5.38;;
17631;SDS011;8934;51.194;17.150;2022-12-07T14:03:55;8.05;;;5.07;;
17631;SDS011;8934;51.194;17.150;2022-12-07T14:06:46;8.95;;;5.53;;
17631;SDS011;8934;51.194;17.150;2022-12-07T14:09:36;7.53;;;5.13;;
17631;SDS011;8934;51.194;17.150;2022-12-07T14:12:23;11.40;;;8.23;;
17631;SDS011;8934;51.194;17.150;2022-12-07T14:15:15;10.77;;;7.65;;
17631;SDS011;8934;51.194;17.150;2022-12-07T14:21:16;12.98;;;10.45;;
17631;SDS011;8934;51.194;17.150;2022-12-07T14:24:08;9.95;;;6.55;;
17631;SDS011;8934;51.194;17.150;2022-12-07T14:26:58;10.05;;;6.13;;
17631;SDS011;8934;51.194;17.150;2022-12-07T14:29:46;10.60;;;6.70;;
17631;SDS011;8934;51.194;17.150;2022-12-07T14:32:34;11.82;;;8.10;;
17631;SDS011;8934;51.194;17.150;2022-12-07T14:35:23;8.95;;;6.18;;
17631;SDS011;8934;51.194;17.150;2022-12-07T14:38:11;8.60;;;4.75;;
17631;SDS011;8934;51.194;17.150;2022-12-07T14:40:59;8.48;;;5.80;;
17631;SDS011;8934;51.194;17.150;2022-12-07T14:44:00;11.45;;;6.40;;
17631;SDS011;8934;51.194;17.150;2022-12-07T14:47:08;9.77;;;7.53;;
17631;SDS011;8934;51.194;17.150;2022-12-07T14:50:16;11.77;;;7.20;;
17631;SDS011;8934;51.194;17.150;2022-12-07T14:53:06;8.25;;;5.15;;
17631;SDS011;8934;51.194;17.150;2022-12-07T14:56:08;20.38;;;12.90;;
17631;SDS011;8934;51.194;17.150;2022-12-07T14:58:56;14.15;;;9.07;;
17631;SDS011;8934;51.194;17.150;2022-12-07T15:01:43;14.52;;;8.45;;
17631;SDS011;8934;51.194;17.150;2022-12-07T15:04:30;8.63;;;5.53;;
17631;SDS011;8934;51.194;17.150;2022-12-07T15:07:19;9.13;;;5.78;;
17631;SDS011;8934;51.194;17.150;2022-12-07T15:10:10;12.55;;;7.60;;
17631;SDS011;8934;51.194;17.150;2022-12-07T15:13:09;14.73;;;7.90;;
17631;SDS011;8934;51.194;17.150;2022-12-07T15:16:19;13.02;;;8.50;;
17631;SDS011;8934;51.194;17.150;2022-12-07T15:19:10;11.55;;;7.65;;
17631;SDS011;8934;51.194;17.150;2022-12-07T15:22:14;14.35;;;7.90;;
17631;SDS011;8934;51.194;17.150;2022-12-07T15:25:01;12.57;;;7.45;;
17631;SDS011;8934;51.194;17.150;2022-12-07T15:27:50;9.25;;;5.95;;
17631;SDS011;8934;51.194;17.150;2022-12-07T15:30:38;20.23;;;12.63;;
17631;SDS011;8934;51.194;17.150;2022-12-07T15:33:25;17.02;;;10.23;;
17631;SDS011;8934;51.194;17.150;2022-12-07T15:36:15;20.10;;;12.77;;
17631;SDS011;8934;51.194;17.150;2022-12-07T15:39:05;13.40;;;8.15;;
17631;SDS011;8934;51.194;17.150;2022-12-07T15:41:59;12.30;;;8.73;;
17631;SDS011;8934;51.194;17.150;2022-12-07T15:44:47;10.07;;;7.90;;
17631;SDS011;8934;51.194;17.150;2022-12-07T15:47:52;11.88;;;7.70;;
17631;SDS011;8934;51.194;17.150;2022-12-07T15:51:03;11.93;;;6.72;;
17631;SDS011;8934;51.194;17.150;2022-12-07T15:53:52;12.57;;;8.57;;
17631;SDS011;8934;51.194;17.150;2022-12-07T15:56:39;12.80;;;7.47;;
17631;SDS011;8934;51.194;17.150;2022-12-07T15:59:27;10.38;;;6.40;;
17631;SDS011;8934;51.194;17.150;2022-12-07T16:02:14;14.15;;;8.75;;
17631;SDS011;8934;51.194;17.150;2022-12-07T16:05:03;16.17;;;8.73;;
17631;SDS011;8934;51.194;17.150;2022-12-07T16:07:51;14.90;;;8.75;;
17631;SDS011;8934;51.194;17.150;2022-12-07T16:10:38;18.30;;;10.95;;
17631;SDS011;8934;51.194;17.150;2022-12-07T16:13:28;12.07;;;7.20;;
17631;SDS011;8934;51.194;17.150;2022-12-07T16:16:16;20.65;;;11.15;;
17631;SDS011;8934;51.194;17.150;2022-12-07T16:19:05;16.80;;;9.73;;
17631;SDS011;8934;51.194;17.150;2022-12-07T16:21:54;18.40;;;11.25;;
17631;SDS011;8934;51.194;17.150;2022-12-07T16:24:41;20.75;;;12.82;;
17631;SDS011;8934;51.194;17.150;2022-12-07T16:27:29;17.33;;;9.68;;
17631;SDS011;8934;51.194;17.150;2022-12-07T16:30:16;19.30;;;12.18;;
17631;SDS011;8934;51.194;17.150;2022-12-07T16:33:03;18.48;;;10.68;;
17631;SDS011;8934;51.194;17.150;2022-12-07T16:35:51;25.95;;;17.25;;
17631;SDS011;8934;51.194;17.150;2022-12-07T16:38:39;18.02;;;10.95;;
17631;SDS011;8934;51.194;17.150;2022-12-07T16:41:35;16.52;;;10.35;;
17631;SDS011;8934;51.194;17.150;2022-12-07T16:44:22;17.33;;;8.95;;
17631;SDS011;8934;51.194;17.150;2022-12-07T16:47:09;17.02;;;10.20;;
17631;SDS011;8934;51.194;17.150;2022-12-07T16:49:57;15.73;;;9.73;;
17631;SDS011;8934;51.194;17.150;2022-12-07T16:52:44;17.00;;;10.05;;
17631;SDS011;8934;51.194;17.150;2022-12-07T16:55:36;16.83;;;9.10;;
17631;SDS011;8934;51.194;17.150;2022-12-07T16:58:23;13.25;;;8.23;;
17631;SDS011;8934;51.194;17.150;2022-12-07T17:01:10;19.98;;;9.18;;
17631;SDS011;8934;51.194;17.150;2022-12-07T17:03:58;15.75;;;9.05;;
17631;SDS011;8934;51.194;17.150;2022-12-07T17:06:46;15.70;;;8.90;;
17631;SDS011;8934;51.194;17.150;2022-12-07T17:09:35;24.55;;;13.05;;
17631;SDS011;8934;51.194;17.150;2022-12-07T17:12:24;26.15;;;13.52;;
17631;SDS011;8934;51.194;17.150;2022-12-07T17:15:11;23.40;;;12.20;;
17631;SDS011;8934;51.194;17.150;2022-12-07T17:18:03;20.42;;;12.45;;
17631;SDS011;8934;51.194;17.150;2022-12-07T17:20:50;23.90;;;13.43;;
17631;SDS011;8934;51.194;17.150;2022-12-07T17:23:37;24.30;;;13.57;;
17631;SDS011;8934;51.194;17.150;2022-12-07T17:26:25;22.58;;;12.55;;
17631;SDS011;8934;51.194;17.150;2022-12-07T17:29:20;19.95;;;10.85;;
17631;SDS011;8934;51.194;17.150;2022-12-07T17:32:07;20.25;;;10.98;;